Time;durP1;ratioP1;P1;durP2;ratioP2;P2;SDS_P1;SDS_P2;PMS_P1;PMS_P2;Temp;Humidity;BMP_temperature;BMP_pressure;BME280_temperature;BME280_humidity;BME280_pressure;Samples;Min_cycle;Max_cycle;Signal;HPM_P1;HPM_P2
2024/01/02 00:01:49;;;;;;;0.90;0.90;;;5.40;99.90;;;;;;5093846;28;20044;-75
2024/01/02 00:04:15;;;;;;;0.90;0.90;;;5.40;99.90;;;;;;5093725;28;20032;-75
2024/01/02 00:06:41;;;;;;;2.78;1.52;;;6.30;99.90;;;;;;5094004;28;20051;-76
2024/01/02 00:09:07;;;;;;;0.90;0.90;;;5.40;99.90;;;;;;5093948;28;20464;-75
2024/01/02 00:11:32;;;;;;;0.90;0.90;;;5.50;99.90;;;;;;5093940;28;20127;-76
2024/01/02 00:13:58;;;;;;;0.90;0.90;;;5.50;99.90;;;;;;5093662;28;20046;-74
2024/01/02 00:16:23;;;;;;;0.90;0.90;;;5.50;99.90;;;;;;5093811;28;20058;-75
2024/01/02 00:18:49;;;;;;;1.45;1.35;;;5.50;99.90;;;;;;5092632;28;20044;-74
2024/01/02 00:21:15;;;;;;;0.90;0.90;;;5.80;99.90;;;;;;5093820;28;20113;-74
2024/01/02 00:23:40;;;;;;;0.90;0.90;;;5.60;99.90;;;;;;5093847;28;20054;-73
2024/01/02 00:26:06;;;;;;;0.80;0.80;;;5.60;99.90;;;;;;5094067;28;20076;-74
2024/01/02 00:28:32;;;;;;;0.88;0.88;;;5.60;99.90;;;;;;5093773;28;20143;-73
2024/01/02 00:30:57;;;;;;;0.90;0.90;;;5.60;99.90;;;;;;5093979;28;20032;-73
2024/01/02 00:33:23;;;;;;;1.20;1.10;;;5.60;99.90;;;;;;5093718;28;20528;-75
2024/01/02 00:35:48;;;;;;;1.20;1.10;;;5.60;99.90;;;;;;5093536;28;20047;-76
2024/01/02 00:38:14;;;;;;;0.90;0.90;;;5.60;99.90;;;;;;5094008;28;20043;-75
2024/01/02 00:40:40;;;;;;;3.65;1.10;;;5.60;99.90;;;;;;5092616;28;20429;-73
2024/01/02 00:43:05;;;;;;;0.80;0.80;;;5.60;99.90;;;;;;5094480;28;20050;-74
2024/01/02 00:45:31;;;;;;;0.90;0.90;;;5.60;99.90;;;;;;5098242;28;20044;-76
2024/01/02 00:47:56;;;;;;;0.90;0.90;;;5.60;99.90;;;;;;5097744;28;20063;-77
2024/01/02 00:50:22;;;;;;;0.93;0.90;;;5.60;99.90;;;;;;5097588;28;20472;-76
2024/01/02 00:52:48;;;;;;;0.90;0.90;;;5.60;99.90;;;;;;5097632;28;20127;-75
2024/01/02 00:55:15;;;;;;;0.93;0.90;;;5.60;99.90;;;;;;5097487;28;20475;-73
2024/01/02 00:57:40;;;;;;;0.90;0.90;;;5.60;99.90;;;;;;5097386;28;20048;-73
2024/01/02 01:00:07;;;;;;;32.80;2.38;;;5.70;99.90;;;;;;5097553;28;20487;-74
2024/01/02 01:02:32;;;;;;;0.90;0.90;;;5.70;99.90;;;;;;5096898;28;20488;-74
2024/01/02 01:04:58;;;;;;;0.88;0.88;;;6.50;99.90;;;;;;5096187;28;20082;-74
2024/01/02 01:07:23;;;;;;;0.90;0.90;;;5.70;99.90;;;;;;5097339;28;20517;-76
2024/01/02 01:09:49;;;;;;;0.90;0.90;;;5.70;99.90;;;;;;5097525;28;20036;-74
2024/01/02 01:12:15;;;;;;;0.90;0.90;;;5.70;99.90;;;;;;5097466;28;20556;-74
2024/01/02 01:14:41;;;;;;;1.02;0.95;;;6.00;99.90;;;;;;5097227;28;20044;-74
2024/01/02 01:17:07;;;;;;;0.80;0.80;;;5.70;99.90;;;;;;5097050;28;20043;-75
2024/01/02 01:19:33;;;;;;;0.93;0.93;;;5.70;99.90;;;;;;5097027;28;20460;-76
2024/01/02 01:21:59;;;;;;;0.90;0.90;;;5.80;99.90;;;;;;5097359;28;20058;-77
2024/01/02 01:24:25;;;;;;;0.90;0.90;;;6.80;99.90;;;;;;5095835;28;20423;-74
2024/01/02 01:26:52;;;;;;;0.90;0.90;;;5.70;99.90;;;;;;5096878;28;20039;-74
2024/01/02 01:29:22;;;;;;;0.90;0.90;;;5.80;99.90;;;;;;5096807;28;20119;-74
2024/01/02 01:31:48;;;;;;;0.90;0.90;;;5.80;99.90;;;;;;5096843;28;20044;-73
2024/01/02 01:34:14;;;;;;;1.00;1.00;;;5.80;99.90;;;;;;5096917;28;20503;-73
2024/01/02 01:36:40;;;;;;;0.90;0.90;;;5.80;99.90;;;;;;5096730;28;20040;-74
2024/01/02 01:39:06;;;;;;;0.90;0.90;;;6.00;99.90;;;;;;5096730;28;20765;-73
2024/01/02 01:41:32;;;;;;;0.90;0.90;;;5.80;99.90;;;;;;5095459;28;20077;-74
2024/01/02 01:43:58;;;;;;;0.90;0.90;;;5.80;99.90;;;;;;5096505;28;20270;-74
2024/01/02 01:46:28;;;;;;;0.98;0.90;;;5.80;99.90;;;;;;5096551;28;20040;-76
2024/01/02 01:48:53;;;;;;;0.90;0.90;;;5.80;99.90;;;;;;5096740;28;20494;-76
2024/01/02 01:51:19;;;;;;;0.90;0.90;;;5.80;99.90;;;;;;5096901;28;20047;-77
2024/01/02 01:53:45;;;;;;;1.13;1.02;;;6.00;99.90;;;;;;5095844;28;20040;-77
2024/01/02 01:56:12;;;;;;;0.90;0.90;;;5.80;99.90;;;;;;5096246;28;20039;-77
2024/01/02 01:58:38;;;;;;;0.90;0.90;;;5.80;99.90;;;;;;5095147;28;20040;-74
2024/01/02 02:01:04;;;;;;;0.90;0.90;;;5.80;99.90;;;;;;5096264;28;20036;-75
2024/01/02 02:03:31;;;;;;;0.90;0.90;;;5.90;99.90;;;;;;5096092;28;20050;-73
2024/01/02 02:05:57;;;;;;;;;;;5.80;99.90;;;;;;5096320;28;20535;-75
2024/01/02 02:08:23;;;;;;;0.82;0.82;;;5.80;99.90;;;;;;5096135;28;19963;-76
2024/01/02 02:10:48;;;;;;;0.98;0.98;;;5.80;99.90;;;;;;5096319;28;20042;-74
2024/01/02 02:13:14;;;;;;;0.88;0.88;;;5.90;99.90;;;;;;5096011;28;20036;-76
2024/01/02 02:15:41;;;;;;;0.90;0.90;;;5.90;99.90;;;;;;5096074;28;20074;-75
2024/01/02 02:18:08;;;;;;;0.90;0.90;;;6.30;99.90;;;;;;5095755;28;20090;-76
2024/01/02 02:20:33;;;;;;;0.80;0.80;;;5.90;99.90;;;;;;5095653;28;20063;-75
2024/01/02 02:22:59;;;;;;;1.35;1.10;;;5.90;99.90;;;;;;5095838;28;20286;-73
2024/01/02 02:25:24;;;;;;;0.90;0.90;;;5.90;99.90;;;;;;5095750;28;20047;-77
2024/01/02 02:27:50;;;;;;;3.63;1.73;;;5.90;99.90;;;;;;5095952;28;20040;-75
2024/01/02 02:30:16;;;;;;;0.90;0.90;;;5.90;99.90;;;;;;5095753;28;20496;-76
2024/01/02 02:32:41;;;;;;;0.80;0.80;;;5.90;99.90;;;;;;5095371;28;20422;-76
2024/01/02 02:35:08;;;;;;;0.80;0.80;;;5.90;99.90;;;;;;5095603;28;20375;-75
2024/01/02 02:37:34;;;;;;;0.97;0.97;;;6.00;99.90;;;;;;5095499;28;20040;-76
2024/01/02 02:40:00;;;;;;;2.60;1.67;;;6.80;99.90;;;;;;5095505;28;20277;-76
2024/01/02 02:42:25;;;;;;;0.90;0.90;;;6.00;99.90;;;;;;5095502;28;20040;-75
2024/01/02 02:44:51;;;;;;;1.00;1.00;;;6.00;99.90;;;;;;5095413;28;20119;-77
2024/01/02 02:47:17;;;;;;;0.90;0.90;;;6.00;99.90;;;;;;5094944;28;20079;-75
2024/01/02 02:49:43;;;;;;;0.90;0.90;;;6.00;99.90;;;;;;5095322;28;20042;-76
2024/01/02 02:52:08;;;;;;;0.90;0.90;;;6.00;99.90;;;;;;5095311;28;20036;-76
2024/01/02 02:54:34;;;;;;;0.90;0.90;;;6.00;99.90;;;;;;5095527;28;20123;-75
2024/01/02 02:57:00;;;;;;;0.90;0.90;;;6.00;99.90;;;;;;5094817;28;20089;-76
2024/01/02 02:59:25;;;;;;;0.80;0.80;;;6.00;99.90;;;;;;5095242;28;20093;-76
2024/01/02 03:01:51;;;;;;;0.90;0.90;;;6.00;99.90;;;;;;5095055;28;20085;-75
2024/01/02 03:04:17;;;;;;;0.85;0.85;;;6.00;99.90;;;;;;5093881;28;20132;-76
2024/01/02 03:06:42;;;;;;;0.80;0.80;;;6.00;99.90;;;;;;5094161;28;20043;-77
2024/01/02 03:09:08;;;;;;;0.90;0.90;;;6.00;99.90;;;;;;5095292;28;20043;-75
2024/01/02 03:11:34;;;;;;;0.90;0.90;;;6.50;99.90;;;;;;5094953;28;20386;-76
2024/01/02 03:14:00;;;;;;;0.82;0.82;;;6.40;99.90;;;;;;5094515;28;20040;-74
2024/01/02 03:16:25;;;;;;;0.85;0.85;;;6.10;99.90;;;;;;5094568;28;20047;-74
2024/01/02 03:18:51;;;;;;;0.90;0.90;;;6.00;99.90;;;;;;5094454;28;20050;-75
2024/01/02 03:21:16;;;;;;;0.80;0.80;;;6.00;99.90;;;;;;5094565;28;20047;-74
2024/01/02 03:23:42;;;;;;;0.90;0.90;;;6.00;99.90;;;;;;5094644;28;20517;-75
2024/01/02 03:26:11;;;;;;;0.90;0.90;;;6.00;99.90;;;;;;5094520;28;20040;-76
2024/01/02 03:28:37;;;;;;;1.00;0.90;;;6.00;99.90;;;;;;5094689;28;20048;-77
2024/01/02 03:31:05;;;;;;;0.80;0.80;;;6.00;99.90;;;;;;5094533;28;20115;-74
2024/01/02 03:33:31;;;;;;;0.90;0.90;;;6.00;99.90;;;;;;5094830;28;20361;-76
2024/01/02 03:35:57;;;;;;;0.90;0.90;;;6.00;99.90;;;;;;5094456;28;20044;-74
2024/01/02 03:38:23;;;;;;;0.90;0.90;;;6.00;99.90;;;;;;5094392;28;20094;-74
2024/01/02 03:40:48;;;;;;;0.80;0.80;;;6.00;99.90;;;;;;5094412;28;20051;-74
2024/01/02 03:43:14;;;;;;;0.90;0.90;;;6.00;99.90;;;;;;5094416;28;20083;-74
2024/01/02 03:45:39;;;;;;;0.80;0.80;;;6.00;99.90;;;;;;5094310;28;20075;-75
2024/01/02 03:48:05;;;;;;;0.80;0.80;;;6.00;99.90;;;;;;5094260;28;20040;-74
2024/01/02 03:50:31;;;;;;;0.90;0.90;;;6.00;99.90;;;;;;5093092;28;20040;-78
2024/01/02 03:52:56;;;;;;;1.05;1.00;;;6.00;99.90;;;;;;5094203;28;20418;-73
2024/01/02 03:55:22;;;;;;;0.80;0.80;;;6.00;99.90;;;;;;5094269;28;20075;-76
2024/01/02 03:57:48;;;;;;;0.90;0.90;;;6.00;99.90;;;;;;5094114;28;20036;-76
2024/01/02 04:00:13;;;;;;;1.35;1.25;;;6.00;99.90;;;;;;5094153;28;20046;-75
2024/01/02 04:02:39;;;;;;;0.90;0.90;;;6.00;99.90;;;;;;5093973;28;20244;-75
2024/01/02 04:05:07;;;;;;;0.88;0.88;;;6.00;99.90;;;;;;5094018;28;20043;-74
2024/01/02 04:07:32;;;;;;;0.90;0.90;;;6.00;99.90;;;;;;5092522;28;20495;-76
2024/01/02 04:09:58;;;;;;;0.90;0.90;;;5.90;99.90;;;;;;5094018;28;20044;-77
2024/01/02 04:12:24;;;;;;;0.80;0.80;;;6.00;99.90;;;;;;5093882;28;20201;-73
2024/01/02 04:14:50;;;;;;;0.80;0.80;;;6.00;99.90;;;;;;5093919;28;20122;-73
2024/01/02 04:17:15;;;;;;;0.90;0.90;;;6.00;99.90;;;;;;5093378;28;20040;-73
2024/01/02 04:19:41;;;;;;;1.15;1.10;;;6.00;99.90;;;;;;5093653;28;20456;-74
2024/01/02 04:22:07;;;;;;;0.80;0.80;;;6.00;99.90;;;;;;5094256;28;20047;-75
2024/01/02 04:24:32;;;;;;;0.90;0.90;;;6.00;99.90;;;;;;5094394;28;20040;-76
2024/01/02 04:26:58;;;;;;;0.90;0.90;;;6.00;99.90;;;;;;5093836;28;20047;-74
2024/01/02 04:29:24;;;;;;;0.90;0.90;;;6.60;99.90;;;;;;5093855;28;20036;-75
2024/01/02 04:31:49;;;;;;;1.00;1.00;;;6.00;99.90;;;;;;5093364;28;20062;-73
2024/01/02 04:34:15;;;;;;;0.90;0.90;;;6.00;99.90;;;;;;5094203;28;20066;-77
2024/01/02 04:36:43;;;;;;;0.90;0.90;;;6.00;99.90;;;;;;5093678;28;20043;-76
2024/01/02 04:39:09;;;;;;;0.80;0.80;;;6.10;99.90;;;;;;5093661;28;20040;-77
2024/01/02 04:41:34;;;;;;;0.80;0.80;;;6.10;99.90;;;;;;5093736;28;20166;-74
2024/01/02 04:44:00;;;;;;;0.90;0.90;;;6.10;99.90;;;;;;5093525;28;20079;-74
2024/01/02 04:46:27;;;;;;;0.90;0.90;;;6.10;99.90;;;;;;5093387;28;20032;-73
2024/01/02 04:48:54;;;;;;;0.80;0.80;;;6.10;99.90;;;;;;5094252;28;20055;-74
2024/01/02 04:51:19;;;;;;;1.47;1.37;;;6.10;99.90;;;;;;5093586;28;20071;-73
2024/01/02 04:53:45;;;;;;;0.90;0.90;;;6.10;99.90;;;;;;5093627;28;20102;-74
2024/01/02 04:56:11;;;;;;;0.90;0.90;;;6.20;99.90;;;;;;5093527;28;20388;-76
2024/01/02 04:58:37;;;;;;;0.80;0.80;;;6.10;99.90;;;;;;5093645;28;20052;-73
2024/01/02 05:01:03;;;;;;;0.90;0.90;;;6.10;99.90;;;;;;5093541;28;20482;-75
2024/01/02 05:03:29;;;;;;;0.82;0.82;;;6.10;99.90;;;;;;5093628;28;20484;-73
2024/01/02 05:05:55;;;;;;;0.80;0.80;;;6.80;99.90;;;;;;5093253;28;20124;-73
2024/01/02 05:08:20;;;;;;;0.80;0.80;;;5.80;99.90;;;;;;5093413;28;20040;-73
2024/01/02 05:10:46;;;;;;;0.80;0.80;;;6.10;99.90;;;;;;5093344;28;20036;-74
2024/01/02 05:13:12;;;;;;;0.82;0.82;;;6.10;99.90;;;;;;5093368;28;20047;-75
2024/01/02 05:15:38;;;;;;;0.77;0.77;;;6.10;99.90;;;;;;5093397;28;20448;-77
2024/01/02 05:18:03;;;;;;;0.90;0.90;;;6.10;99.90;;;;;;5093842;28;20078;-76
2024/01/02 05:20:29;;;;;;;0.80;0.80;;;6.10;99.90;;;;;;5093035;28;20056;-75
2024/01/02 05:22:55;;;;;;;0.80;0.80;;;6.10;99.90;;;;;;5093347;28;20514;-76
2024/01/02 05:25:20;;;;;;;0.80;0.80;;;6.10;99.90;;;;;;5093344;28;20050;-75
2024/01/02 05:27:46;;;;;;;0.80;0.80;;;6.10;99.90;;;;;;5093298;28;20054;-75
2024/01/02 05:30:12;;;;;;;1.00;1.00;;;6.10;99.90;;;;;;5094304;28;20479;-75
2024/01/02 05:32:38;;;;;;;0.90;0.90;;;6.10;99.90;;;;;;5096815;28;20040;-74
2024/01/02 05:35:04;;;;;;;0.80;0.80;;;6.10;99.90;;;;;;5097358;28;20036;-76
2024/01/02 05:37:29;;;;;;;0.90;0.90;;;6.10;99.90;;;;;;5096733;28;20078;-74
2024/01/02 05:39:55;;;;;;;0.80;0.80;;;6.10;99.90;;;;;;5096772;28;20086;-78
2024/01/02 05:42:21;;;;;;;0.80;0.80;;;6.10;99.90;;;;;;5096720;28;20078;-74
2024/01/02 05:44:47;;;;;;;0.80;0.80;;;6.10;99.90;;;;;;5096584;28;20036;-76
2024/01/02 05:47:13;;;;;;;0.80;0.80;;;6.10;99.90;;;;;;5096279;28;20044;-75
2024/01/02 05:49:38;;;;;;;0.80;0.80;;;6.10;99.90;;;;;;5096622;28;20032;-74
2024/01/02 05:52:04;;;;;;;0.80;0.80;;;6.10;99.90;;;;;;5096607;28;20464;-75
2024/01/02 05:54:30;;;;;;;0.80;0.80;;;6.10;99.90;;;;;;5096479;28;20172;-73
2024/01/02 05:56:55;;;;;;;0.80;0.80;;;6.10;99.90;;;;;;5096323;28;20085;-70
2024/01/02 05:59:21;;;;;;;0.80;0.80;;;6.10;99.90;;;;;;5096304;28;20052;-73
2024/01/02 06:01:46;;;;;;;0.90;0.90;;;6.10;99.90;;;;;;5096113;28;20032;-74
2024/01/02 06:04:12;;;;;;;0.80;0.80;;;6.80;99.90;;;;;;5096679;28;20043;-76
2024/01/02 06:06:38;;;;;;;0.90;0.90;;;6.20;99.90;;;;;;5096189;28;20086;-75
2024/01/02 06:09:03;;;;;;;0.80;0.80;;;6.20;99.90;;;;;;5096209;28;20115;-75
2024/01/02 06:11:29;;;;;;;0.90;0.90;;;6.20;99.90;;;;;;5096125;28;20032;-77
2024/01/02 06:13:55;;;;;;;0.80;0.80;;;6.20;99.90;;;;;;5096213;28;20040;-75
2024/01/02 06:16:20;;;;;;;0.80;0.80;;;6.20;99.90;;;;;;5095837;28;20048;-73
2024/01/02 06:18:46;;;;;;;0.90;0.90;;;6.20;99.90;;;;;;5096010;28;20545;-76
2024/01/02 06:21:11;;;;;;;0.80;0.80;;;6.30;99.90;;;;;;5096023;28;20099;-76
2024/01/02 06:23:38;;;;;;;0.73;0.73;;;6.20;99.90;;;;;;5095904;28;20051;-76
2024/01/02 06:26:03;;;;;;;0.82;0.82;;;7.00;99.90;;;;;;5095776;28;20078;-74
2024/01/02 06:28:29;;;;;;;0.90;0.90;;;6.30;99.90;;;;;;5095820;28;20067;-74
2024/01/02 06:30:55;;;;;;;0.80;0.80;;;6.30;99.90;;;;;;5095559;28;20071;-73
2024/01/02 06:33:21;;;;;;;0.80;0.80;;;6.30;99.90;;;;;;5095747;28;20485;-75
2024/01/02 06:35:46;;;;;;;0.80;0.80;;;6.30;99.90;;;;;;5095625;28;20055;-74
2024/01/02 06:38:12;;;;;;;0.80;0.80;;;6.30;99.90;;;;;;5095215;28;20383;-75
2024/01/02 06:40:39;;;;;;;0.90;0.90;;;6.30;99.90;;;;;;5095481;28;20031;-73
2024/01/02 06:43:04;;;;;;;0.80;0.80;;;6.30;99.90;;;;;;5095613;28;20032;-72
2024/01/02 06:45:31;;;;;;;0.90;0.90;;;6.40;99.90;;;;;;5095498;28;20040;-74
2024/01/02 06:47:57;;;;;;;0.88;0.88;;;6.40;99.90;;;;;;5095395;28;20047;-73
2024/01/02 06:50:22;;;;;;;0.80;0.80;;;7.40;99.90;;;;;;5095348;28;20040;-73
2024/01/02 06:52:48;;;;;;;0.80;0.80;;;6.40;99.90;;;;;;5095332;28;20040;-74
2024/01/02 06:55:14;;;;;;;0.80;0.80;;;6.40;99.90;;;;;;5094922;28;20040;-75
2024/01/02 06:57:40;;;;;;;0.90;0.90;;;6.50;99.90;;;;;;5095111;28;20036;-72
2024/01/02 07:00:06;;;;;;;1.38;1.27;;;7.40;99.90;;;;;;5095100;28;20044;-74
2024/01/02 07:02:33;;;;;;;0.80;0.80;;;6.50;99.90;;;;;;5095084;28;20157;-75
2024/01/02 07:04:59;;;;;;;0.90;0.90;;;6.50;99.90;;;;;;5095122;28;20043;-76
2024/01/02 07:07:25;;;;;;;0.75;0.75;;;6.50;99.90;;;;;;5095018;28;20040;-74
2024/01/02 07:09:51;;;;;;;0.80;0.80;;;6.50;99.90;;;;;;5094910;28;20127;-77
2024/01/02 07:12:17;;;;;;;0.80;0.80;;;7.30;99.90;;;;;;5095085;28;20040;-75
2024/01/02 07:14:43;;;;;;;0.80;0.80;;;6.50;99.90;;;;;;5094916;28;20073;-73
2024/01/02 07:17:09;;;;;;;0.70;0.70;;;6.50;99.90;;;;;;5094842;28;20421;-76
2024/01/02 07:19:35;;;;;;;0.80;0.80;;;6.60;99.90;;;;;;5094691;28;20040;-78
2024/01/02 07:22:00;;;;;;;0.80;0.80;;;6.60;99.90;;;;;;5094763;28;20495;-74
2024/01/02 07:24:26;;;;;;;0.80;0.80;;;7.30;99.90;;;;;;5094796;28;20058;-74
2024/01/02 07:26:52;;;;;;;0.80;0.80;;;6.60;99.90;;;;;;5094656;28;20040;-77
2024/01/02 07:29:17;;;;;;;0.80;0.80;;;6.60;99.90;;;;;;5094660;28;20044;-75
2024/01/02 07:31:43;;;;;;;0.70;0.70;;;6.70;99.90;;;;;;5094560;28;20036;-77
2024/01/02 07:34:12;;;;;;;0.73;0.73;;;6.70;99.90;;;;;;5094542;28;20040;-75
2024/01/02 07:36:38;;;;;;;0.80;0.80;;;6.90;99.90;;;;;;5094441;28;20380;-78
2024/01/02 07:39:03;;;;;;;0.80;0.80;;;6.80;99.90;;;;;;5093490;28;20035;-77
2024/01/02 07:41:29;;;;;;;0.80;0.80;;;6.80;99.90;;;;;;5094130;28;20081;-77
2024/01/02 07:43:54;;;;;;;0.80;0.80;;;6.80;99.90;;;;;;5094465;28;20038;-74
2024/01/02 07:46:20;;;;;;;0.75;0.75;;;7.70;99.90;;;;;;5094315;28;20506;-73
2024/01/02 07:48:45;;;;;;;0.80;0.80;;;6.90;99.90;;;;;;5094355;28;20036;-75
2024/01/02 07:51:11;;;;;;;0.80;0.80;;;7.00;99.90;;;;;;5094304;28;20202;-75
2024/01/02 07:53:37;;;;;;;0.80;0.80;;;7.40;99.90;;;;;;5093738;28;20040;-74
2024/01/02 07:56:04;;;;;;;0.77;0.77;;;7.10;99.90;;;;;;5094423;28;20079;-75
2024/01/02 07:58:30;;;;;;;0.90;0.90;;;7.10;99.90;;;;;;5092619;28;20036;-72
2024/01/02 08:00:55;;;;;;;0.80;0.80;;;7.20;99.90;;;;;;5094098;28;20489;-77
2024/01/02 08:03:21;;;;;;;0.70;0.70;;;7.60;99.90;;;;;;5094095;28;20123;-76
2024/01/02 08:05:47;;;;;;;0.80;0.80;;;7.30;99.90;;;;;;5094083;28;20460;-74
2024/01/02 08:08:12;;;;;;;0.80;0.80;;;7.30;99.90;;;;;;5094028;28;20047;-74
2024/01/02 08:10:38;;;;;;;0.80;0.80;;;7.40;99.90;;;;;;5094004;28;20047;-74
2024/01/02 08:13:04;;;;;;;0.80;0.80;;;7.50;99.90;;;;;;5093952;28;20077;-74
2024/01/02 08:15:30;;;;;;;0.80;0.80;;;7.50;99.90;;;;;;5093863;28;20042;-74
2024/01/02 08:17:57;;;;;;;0.80;0.80;;;7.60;99.90;;;;;;5093845;28;20371;-71
2024/01/02 08:20:23;;;;;;;0.80;0.80;;;8.20;99.90;;;;;;5094426;28;20055;-76
2024/01/02 08:22:48;;;;;;;0.80;0.80;;;7.70;99.90;;;;;;5093900;28;20118;-73
2024/01/02 08:25:14;;;;;;;0.80;0.80;;;7.90;99.90;;;;;;5093835;28;20036;-72
2024/01/02 08:27:40;;;;;;;0.80;0.80;;;7.80;99.90;;;;;;5093906;28;20044;-74
2024/01/02 08:30:06;;;;;;;0.73;0.73;;;7.80;99.90;;;;;;5093501;28;20039;-71
2024/01/02 08:32:31;;;;;;;0.80;0.80;;;7.80;99.90;;;;;;5093777;28;20043;-72
2024/01/02 08:34:57;;;;;;;0.73;0.73;;;7.90;99.90;;;;;;5094112;28;20089;-71
2024/01/02 08:37:23;;;;;;;0.80;0.80;;;8.70;99.90;;;;;;5093685;28;20456;-71
2024/01/02 08:39:48;;;;;;;0.70;0.70;;;8.00;99.90;;;;;;5093437;28;20087;-76
2024/01/02 08:42:14;;;;;;;0.80;0.80;;;8.80;99.90;;;;;;5093852;28;20044;-78
2024/01/02 08:44:40;;;;;;;0.90;0.90;;;8.10;99.90;;;;;;5093715;28;20036;-77
2024/01/02 08:47:06;;;;;;;0.80;0.80;;;8.10;99.90;;;;;;5093691;28;20068;-77
2024/01/02 08:49:31;;;;;;;0.70;0.70;;;8.60;99.90;;;;;;5093552;28;20126;-77
2024/01/02 08:51:57;;;;;;;0.70;0.70;;;8.20;99.90;;;;;;5093609;28;20047;-80
2024/01/02 08:54:22;;;;;;;0.80;0.80;;;8.30;99.90;;;;;;5093687;28;20036;-75
2024/01/02 08:56:48;;;;;;;0.80;0.80;;;8.30;99.90;;;;;;5093661;28;20086;-76
2024/01/02 08:59:14;;;;;;;0.80;0.80;;;8.40;99.90;;;;;;5097445;28;20044;-79
2024/01/02 09:01:39;;;;;;;0.80;0.80;;;8.40;99.90;;;;;;5093497;28;20044;-75
2024/01/02 09:04:05;;;;;;;1.50;0.98;;;8.50;99.90;;;;;;5094060;28;20530;-73
2024/01/02 09:06:30;;;;;;;0.80;0.80;;;8.60;99.90;;;;;;5097383;28;20073;-74
2024/01/02 09:08:57;;;;;;;0.63;0.63;;;9.30;99.90;;;;;;5097387;28;20038;-73
2024/01/02 09:11:24;;;;;;;0.80;0.80;;;8.70;99.90;;;;;;5097600;28;20123;-73
2024/01/02 09:13:50;;;;;;;0.70;0.70;;;8.70;99.90;;;;;;5096893;28;20044;-76
2024/01/02 09:16:15;;;;;;;0.80;0.80;;;9.00;99.90;;;;;;5097138;28;20131;-78
2024/01/02 09:18:41;;;;;;;0.80;0.80;;;9.30;99.90;;;;;;5097567;28;20032;-82
2024/01/02 09:21:07;;;;;;;0.70;0.70;;;8.80;99.90;;;;;;5097161;28;20066;-75
2024/01/02 09:23:36;;;;;;;0.93;0.90;;;8.80;99.90;;;;;;5097036;28;20081;-79
2024/01/02 09:26:06;;;;;;;0.70;0.70;;;8.80;99.90;;;;;;5096981;28;20067;-77
2024/01/02 09:28:34;;;;;;;0.80;0.80;;;8.90;99.90;;;;;;5097000;28;20036;-76
2024/01/02 09:31:00;;;;;;;0.70;0.70;;;8.90;99.90;;;;;;5078990;28;20050;-76
2024/01/02 09:33:27;;;;;;;0.70;0.70;;;9.00;99.90;;;;;;5096845;28;20036;-76
2024/01/02 09:35:52;;;;;;;0.70;0.70;;;9.00;99.90;;;;;;5096831;28;20047;-76
2024/01/02 09:38:21;;;;;;;0.70;0.70;;;9.00;99.90;;;;;;5096398;28;20506;-72
2024/01/02 09:41:01;;;;;;;0.65;0.65;;;9.00;99.90;;;;;;5096569;28;20111;-74
2024/01/02 09:43:40;;;;;;;0.70;0.70;;;9.10;99.90;;;;;;5096694;28;20051;-76
2024/01/02 09:46:14;;;;;;;0.80;0.80;;;9.10;99.90;;;;;;5096598;28;20079;-76
2024/01/02 09:49:25;;;;;;;0.70;0.70;;;9.50;99.90;;;;;;5096811;28;20349;-74
2024/01/02 09:52:18;;;;;;;0.73;0.73;;;9.20;99.90;;;;;;5097061;28;20474;-73
2024/01/02 09:55:06;;;;;;;0.80;0.80;;;9.20;99.90;;;;;;5096760;28;20093;-75
2024/01/02 09:57:52;;;;;;;0.80;0.80;;;9.30;99.90;;;;;;5099013;28;20403;-73
2024/01/02 10:00:41;;;;;;;0.70;0.70;;;9.30;99.90;;;;;;5096899;28;20123;-72
2024/01/02 10:03:07;;;;;;;0.80;0.80;;;9.40;99.90;;;;;;5096448;28;20089;-72
2024/01/02 10:05:35;;;;;;;0.70;0.70;;;9.40;99.90;;;;;;5096253;28;20044;-72
2024/01/02 10:08:42;;;;;;;1.50;1.35;;;9.40;99.90;;;;;;5095853;28;20083;-71
2024/01/02 10:11:21;;;;;;;0.70;0.70;;;9.40;99.90;;;;;;5096514;28;20043;-72
2024/01/02 10:14:06;;;;;;;0.70;0.70;;;9.50;99.90;;;;;;5096385;28;20054;-75
2024/01/02 10:16:48;;;;;;;0.70;0.70;;;9.60;99.90;;;;;;5095622;28;20093;-74
2024/01/02 10:19:36;;;;;;;0.70;0.70;;;9.60;99.90;;;;;;5096470;28;20044;-77
2024/01/02 10:22:04;;;;;;;;;;;9.60;99.90;;;;;;5096446;28;20051;-76
2024/01/02 10:25:08;;;;;;;0.70;0.70;;;9.50;99.90;;;;;;5095924;28;19927;-72
2024/01/02 10:28:12;;;;;;;0.70;0.70;;;9.70;99.90;;;;;;5096274;28;20062;-71
2024/01/02 10:31:00;;;;;;;0.70;0.70;;;9.70;99.90;;;;;;5096028;28;20043;-72
2024/01/02 10:33:38;;;;;;;0.70;0.70;;;9.80;99.90;;;;;;5095720;28;20063;-75
2024/01/02 10:36:10;;;;;;;0.70;0.70;;;9.90;99.90;;;;;;5096103;28;20036;-71
2024/01/02 10:38:43;;;;;;;0.70;0.70;;;9.90;99.90;;;;;;5095782;28;20047;-72
2024/01/02 10:41:23;;;;;;;0.70;0.70;;;9.90;99.90;;;;;;5094589;28;20104;-71
2024/01/02 10:44:22;;;;;;;0.70;0.70;;;10.00;99.90;;;;;;5095514;28;20040;-71
2024/01/02 10:46:57;;;;;;;0.70;0.70;;;10.00;99.90;;;;;;5095491;28;20044;-71
2024/01/02 10:49:42;;;;;;;0.70;0.70;;;10.00;99.90;;;;;;5095444;28;20380;-74
2024/01/02 10:52:20;;;;;;;0.80;0.80;;;10.10;99.90;;;;;;5095106;28;20083;-73
2024/01/02 10:55:10;;;;;;;0.70;0.70;;;10.00;99.90;;;;;;5095797;28;20379;-74
2024/01/02 10:57:43;;;;;;;0.70;0.70;;;10.10;99.90;;;;;;5095486;28;20078;-77
2024/01/02 11:00:20;;;;;;;1.25;1.15;;;10.10;99.90;;;;;;5095236;28;20048;-70
2024/01/02 11:02:57;;;;;;;0.70;0.70;;;10.10;99.90;;;;;;5095230;28;20036;-69
2024/01/02 11:05:31;;;;;;;;;;;10.70;99.90;;;;;;5094540;28;20525;-80
2024/01/02 11:08:23;;;;;;;0.90;0.90;;;10.10;99.90;;;;;;5095177;28;20268;-78
2024/01/02 11:11:03;;;;;;;0.70;0.70;;;10.10;99.90;;;;;;5095070;28;20048;-75
2024/01/02 11:13:30;;;;;;;1.00;0.90;;;10.10;99.90;;;;;;5095608;28;20039;-76
2024/01/02 11:15:58;;;;;;;;;;;10.50;99.90;;;;;;5095680;28;20040;-74
2024/01/02 11:18:27;;;;;;;0.70;0.70;;;10.20;99.90;;;;;;5098326;28;19916;-75
2024/01/02 11:21:12;;;;;;;0.70;0.70;;;10.10;99.90;;;;;;5096339;28;20070;-80
2024/01/02 11:23:40;;;;;;;0.70;0.70;;;10.40;99.90;;;;;;5094699;28;20040;-80
2024/01/02 11:26:24;;;;;;;0.70;0.70;;;10.10;99.90;;;;;;5095021;28;20491;-73
2024/01/02 11:28:52;;;;;;;0.70;0.70;;;10.10;99.90;;;;;;5093571;28;20090;-73
2024/01/02 11:31:20;;;;;;;0.68;0.68;;;10.10;99.90;;;;;;5094732;28;20054;-71
2024/01/02 11:34:04;;;;;;;0.95;0.85;;;10.20;99.90;;;;;;5094543;28;20114;-76
2024/01/02 11:37:01;;;;;;;0.70;0.70;;;10.20;99.90;;;;;;5094821;28;20097;-75
2024/01/02 11:39:40;;;;;;;0.80;0.80;;;10.20;99.90;;;;;;5094577;28;20066;-73
2024/01/02 11:42:30;;;;;;;0.70;0.70;;;10.20;99.90;;;;;;5094608;28;20063;-74
2024/01/02 11:45:11;;;;;;;0.68;0.68;;;10.20;99.90;;;;;;5094473;28;20051;-79
2024/01/02 11:47:44;;;;;;;0.60;0.60;;;10.20;99.90;;;;;;5094389;28;20088;-76
2024/01/02 11:50:12;;;;;;;0.70;0.70;;;10.20;99.90;;;;;;5093165;28;20519;-77
2024/01/02 11:53:06;;;;;;;0.70;0.70;;;10.30;99.90;;;;;;5094238;28;20468;-75
2024/01/02 11:55:49;;;;;;;0.70;0.70;;;10.20;99.90;;;;;;5094282;28;20070;-76
2024/01/02 11:58:33;;;;;;;1.60;1.45;;;10.70;99.90;;;;;;5093387;28;20044;-77
2024/01/02 12:01:27;;;;;;;0.70;0.70;;;10.30;99.90;;;;;;5094186;28;20047;-74
2024/01/02 12:03:55;;;;;;;0.70;0.70;;;10.20;99.90;;;;;;5093736;28;20048;-72
2024/01/02 12:06:45;;;;;;;1.20;1.10;;;10.30;99.90;;;;;;5093916;28;20051;-76
2024/01/02 12:09:16;;;;;;;0.77;0.77;;;10.20;99.90;;;;;;5093906;28;20097;-76
2024/01/02 12:12:18;;;;;;;0.80;0.80;;;10.20;99.90;;;;;;5093966;28;20044;-76
2024/01/02 12:15:03;;;;;;;0.70;0.70;;;10.30;99.90;;;;;;5093708;28;20028;-80
2024/01/02 12:17:33;;;;;;;0.63;0.63;;;10.30;99.90;;;;;;5094379;28;20040;-83
2024/01/02 12:20:04;;;;;;;0.70;0.70;;;10.20;99.90;;;;;;5092423;28;20048;-79
2024/01/02 12:22:32;;;;;;;0.60;0.60;;;10.20;99.90;;;;;;5093908;28;20438;-78
2024/01/02 12:25:00;;;;;;;0.70;0.70;;;10.90;99.90;;;;;;5092738;28;20040;-83
2024/01/02 12:27:28;;;;;;;0.85;0.82;;;10.30;99.90;;;;;;5093671;28;20091;-69
2024/01/02 12:29:58;;;;;;;0.60;0.60;;;10.20;99.90;;;;;;5093634;28;20456;-69
2024/01/02 12:32:33;;;;;;;1.10;1.00;;;10.30;99.90;;;;;;5092475;28;20464;-69
2024/01/02 12:35:07;;;;;;;1.10;1.05;;;10.30;99.90;;;;;;5094222;28;20492;-70
2024/01/02 12:37:36;;;;;;;1.35;1.25;;;10.30;99.90;;;;;;5093447;28;20036;-69
2024/01/02 12:40:06;;;;;;;1.30;1.20;;;10.30;99.90;;;;;;5097799;28;20052;-69
2024/01/02 12:42:41;;;;;;;0.70;0.70;;;10.30;99.90;;;;;;5097577;28;20086;-75
2024/01/02 12:45:12;;;;;;;0.70;0.70;;;10.30;99.90;;;;;;5097798;28;20035;-74
2024/01/02 12:47:42;;;;;;;1.20;1.15;;;10.30;99.90;;;;;;5098201;28;20035;-75
2024/01/02 12:50:10;;;;;;;0.70;0.70;;;10.30;99.90;;;;;;5097574;28;20055;-75
2024/01/02 12:52:46;;;;;;;0.77;0.77;;;11.00;99.90;;;;;;5097618;28;20094;-75
2024/01/02 12:55:13;;;;;;;1.38;0.80;;;10.30;99.90;;;;;;5097686;28;20040;-73
2024/01/02 12:57:39;;;;;;;0.70;0.70;;;10.30;99.90;;;;;;5097411;28;20046;-73
2024/01/02 13:00:07;;;;;;;0.75;0.75;;;10.30;99.90;;;;;;5097642;28;20119;-73
2024/01/02 13:02:36;;;;;;;0.60;0.60;;;10.30;99.90;;;;;;5098013;28;20032;-74
2024/01/02 13:05:05;;;;;;;0.80;0.80;;;10.30;99.90;;;;;;5097419;28;20093;-73